Time;durP1;ratioP1;P1;durP2;ratioP2;P2;SDS_P1;SDS_P2;PMS_P1;PMS_P2;Temp;Humidity;BMP_temperature;BMP_pressure;BME280_temperature;BME280_humidity;BME280_pressure;Samples;Min_cycle;Max_cycle;Signal;HPM_P1;HPM_P2
2022/09/28 00:00:15;;;;;;;2.20;2.00;;;-40.00;99.90;;;;;;5081157;28;20274;-72
2022/09/28 00:02:41;;;;;;;3.70;1.77;;;-40.00;99.90;;;;;;5078828;28;20214;-73
2022/09/28 00:05:07;;;;;;;2.37;2.17;;;-40.00;99.90;;;;;;5075387;28;20179;-72
2022/09/28 00:07:33;;;;;;;2.77;2.03;;;-40.00;99.90;;;;;;5079454;28;20295;-71
2022/09/28 00:09:59;;;;;;;3.30;2.37;;;-40.00;99.90;;;;;;5077905;28;20216;-69
2022/09/28 00:12:24;;;;;;;2.70;2.00;;;-40.00;99.90;;;;;;5081869;28;20307;-70
2022/09/28 00:14:50;;;;;;;3.80;2.10;;;-40.00;99.90;;;;;;5082107;28;20199;-71
2022/09/28 00:17:19;;;;;;;2.17;1.97;;;-40.00;99.90;;;;;;5084317;28;20204;-70
2022/09/28 00:19:45;;;;;;;5.83;2.30;;;-40.00;99.90;;;;;;5075131;28;20171;-75
2022/09/28 00:22:10;;;;;;;2.30;2.17;;;-40.00;99.90;;;;;;5075256;28;20555;-71
2022/09/28 00:24:36;;;;;;;1.97;1.87;;;-40.00;99.90;;;;;;5077483;28;20264;-76
2022/09/28 00:27:03;;;;;;;2.83;2.00;;;-40.00;99.90;;;;;;5084085;28;20275;-69
2022/09/28 00:29:33;;;;;;;2.10;1.90;;;-40.00;99.90;;;;;;5078565;28;20230;-71
2022/09/28 00:32:02;;;;;;;2.63;1.90;;;-40.00;99.90;;;;;;5081683;28;20267;-70
2022/09/28 00:34:34;;;;;;;4.67;2.03;;;-40.00;99.90;;;;;;5075065;28;20190;-69
2022/09/28 00:37:02;;;;;;;5.60;2.30;;;-40.00;99.90;;;;;;5075082;28;20185;-69
2022/09/28 00:39:30;;;;;;;2.37;1.67;;;-40.00;99.90;;;;;;5075389;28;20208;-69
2022/09/28 00:41:56;;;;;;;3.20;2.33;;;-40.00;99.90;;;;;;5076541;28;20634;-69
2022/09/28 00:44:25;;;;;;;4.30;3.00;;;-40.00;99.90;;;;;;5082505;28;20536;-69
2022/09/28 00:46:59;;;;;;;4.33;2.00;;;-40.00;99.90;;;;;;5074582;28;20185;-69
2022/09/28 00:49:39;;;;;;;3.87;2.23;;;-40.00;99.90;;;;;;5073874;28;20187;-70
2022/09/28 00:52:07;;;;;;;2.93;2.33;;;-40.00;99.90;;;;;;5079471;28;20190;-70
2022/09/28 00:54:33;;;;;;;2.70;2.50;;;-40.00;99.90;;;;;;5078903;28;20172;-68
2022/09/28 00:57:00;;;;;;;5.33;2.97;;;-40.00;99.90;;;;;;5076915;28;20237;-70
2022/09/28 00:59:26;;;;;;;2.67;2.47;;;-40.00;99.90;;;;;;5078735;28;20204;-74
2022/09/28 01:01:52;;;;;;;2.67;2.47;;;-40.00;99.90;;;;;;5083970;28;20219;-69
2022/09/28 01:04:18;;;;;;;7.10;2.93;;;-40.00;99.90;;;;;;5074538;28;20235;-70
2022/09/28 01:06:45;;;;;;;3.20;2.43;;;-40.00;99.90;;;;;;5078321;28;20235;-69
2022/09/28 01:09:12;;;;;;;3.03;2.83;;;-40.00;99.90;;;;;;5075657;28;20177;-70
2022/09/28 01:11:38;;;;;;;5.83;2.43;;;-40.00;99.90;;;;;;5085140;28;20201;-70
2022/09/28 01:14:08;;;;;;;4.30;2.70;;;-40.00;99.90;;;;;;5077820;28;20359;-74
2022/09/28 01:16:40;;;;;;;3.07;2.40;;;-40.00;99.90;;;;;;5077727;28;20177;-69
2022/09/28 01:19:31;;;;;;;3.13;2.63;;;-40.00;99.90;;;;;;5081900;28;20192;-70
2022/09/28 01:22:08;;;;;;;5.00;2.50;;;-40.00;99.90;;;;;;5084331;28;20198;-68
2022/09/28 01:24:37;;;;;;;5.93;2.77;;;-40.00;99.90;;;;;;5083357;28;20479;-70
2022/09/28 01:27:19;;;;;;;4.13;3.20;;;-40.00;99.90;;;;;;5077921;28;20181;-70
2022/09/28 01:29:54;;;;;;;2.73;2.27;;;-40.00;99.90;;;;;;5077388;28;20175;-75
2022/09/28 01:32:30;;;;;;;6.97;3.13;;;-40.00;99.90;;;;;;5084842;28;20261;-69
2022/09/28 01:35:17;;;;;;;4.80;2.37;;;-40.00;99.90;;;;;;5077632;28;20186;-71
2022/09/28 01:37:51;;;;;;;3.30;2.23;;;-40.00;99.90;;;;;;5077650;28;20178;-69
2022/09/28 01:40:19;;;;;;;2.63;2.43;;;-40.00;99.90;;;;;;5083670;28;20188;-70
2022/09/28 01:42:49;;;;;;;4.47;2.77;;;-40.00;99.90;;;;;;5086244;28;20202;-69
2022/09/28 01:45:28;;;;;;;5.20;3.37;;;-40.00;99.90;;;;;;5082069;28;20186;-70
2022/09/28 01:47:58;;;;;;;6.63;3.17;;;-40.00;99.90;;;;;;5084526;28;20175;-71
2022/09/28 01:50:27;;;;;;;3.87;2.77;;;-40.00;99.90;;;;;;5077901;28;20763;-73
2022/09/28 01:53:11;;;;;;;10.50;3.40;;;-40.00;99.90;;;;;;5076667;28;20186;-77
2022/09/28 01:55:45;;;;;;;4.63;2.43;;;-40.00;99.90;;;;;;5084254;28;20636;-74
2022/09/28 01:58:35;;;;;;;8.50;2.87;;;-40.00;99.90;;;;;;5084034;28;20190;-73
2022/09/28 02:01:12;;;;;;;4.80;2.93;;;-40.00;99.90;;;;;;5079814;28;20227;-70
2022/09/28 02:03:45;;;;;;;3.80;2.97;;;-40.00;99.90;;;;;;5083503;28;20543;-69
2022/09/28 02:06:17;;;;;;;9.17;3.47;;;-40.00;99.90;;;;;;5084112;28;20254;-69
2022/09/28 02:08:54;;;;;;;5.73;2.43;;;-40.00;99.90;;;;;;5076999;28;20611;-68
2022/09/28 02:11:21;;;;;;;9.07;3.20;;;-40.00;99.90;;;;;;5082528;28;20211;-68
2022/09/28 02:13:55;;;;;;;6.70;2.60;;;-40.00;99.90;;;;;;5075793;28;20278;-70
2022/09/28 02:16:42;;;;;;;5.77;2.90;;;-40.00;99.90;;;;;;5087595;28;20465;-70
2022/09/28 02:19:11;;;;;;;8.87;3.13;;;-40.00;99.90;;;;;;5082767;28;20577;-73
2022/09/28 02:21:47;;;;;;;5.20;2.73;;;-40.00;99.90;;;;;;5076416;28;20210;-73
2022/09/28 02:24:21;;;;;;;3.13;2.87;;;-40.00;99.90;;;;;;5077316;28;20586;-74
2022/09/28 02:26:49;;;;;;;7.03;3.53;;;-40.00;99.90;;;;;;5081915;28;20190;-70
2022/09/28 02:29:15;;;;;;;4.60;3.63;;;-40.00;99.90;;;;;;5083585;28;20233;-73
2022/09/28 02:31:40;;;;;;;4.57;2.60;;;-40.00;99.90;;;;;;5080699;28;20192;-70
2022/09/28 02:34:06;;;;;;;3.77;2.67;;;-40.00;99.90;;;;;;5082215;28;20474;-72
2022/09/28 02:36:32;;;;;;;3.67;2.30;;;-40.00;99.90;;;;;;5076548;28;20215;-69
2022/09/28 02:39:01;;;;;;;4.57;2.70;;;-40.00;99.90;;;;;;5076730;28;20191;-73
2022/09/28 02:41:52;;;;;;;2.63;2.43;;;-40.00;99.90;;;;;;5079355;28;20189;-70
2022/09/28 02:44:39;;;;;;;3.97;2.47;;;-40.00;99.90;;;;;;5082911;28;20175;-71
2022/09/28 02:47:21;;;;;;;5.90;3.97;;;-40.00;99.90;;;;;;5079368;28;20171;-70
2022/09/28 02:50:09;;;;;;;6.10;3.17;;;-40.00;99.90;;;;;;5081773;28;20183;-71
2022/09/28 02:52:47;;;;;;;3.60;3.30;;;-40.00;99.90;;;;;;5085488;28;20191;-70
2022/09/28 02:55:28;;;;;;;5.00;3.23;;;-40.00;99.90;;;;;;5076464;28;20201;-72
2022/09/28 02:58:16;;;;;;;2.90;2.57;;;-40.00;99.90;;;;;;5086290;28;20182;-70
2022/09/28 03:01:12;;;;;;;6.57;3.37;;;-40.00;99.90;;;;;;5079524;28;20191;-69
2022/09/28 03:03:48;;;;;;;6.90;3.30;;;-40.00;99.90;;;;;;5075945;28;20587;-69
2022/09/28 03:06:30;;;;;;;3.80;3.50;;;-40.00;99.90;;;;;;5082667;28;20199;-69
2022/09/28 03:09:11;;;;;;;3.10;2.67;;;-40.00;99.90;;;;;;5081131;28;20176;-69
2022/09/28 03:11:48;;;;;;;3.67;2.90;;;-40.00;99.90;;;;;;5079505;28;20183;-69
2022/09/28 03:14:14;;;;;;;4.83;2.90;;;-40.00;99.90;;;;;;5082136;28;20606;-69
2022/09/28 03:16:44;;;;;;;3.87;2.90;;;-40.00;99.90;;;;;;5075809;28;20485;-69
2022/09/28 03:19:16;;;;;;;2.63;2.30;;;-40.00;99.90;;;;;;5076211;28;20486;-70
2022/09/28 03:21:41;;;;;;;3.20;3.00;;;-40.00;99.90;;;;;;5075644;28;20377;-69
2022/09/28 03:24:09;;;;;;;6.33;2.50;;;-40.00;99.90;;;;;;5075816;28;20187;-69
2022/09/28 03:26:39;;;;;;;10.23;3.60;;;-40.00;99.90;;;;;;5075260;28;20184;-69
2022/09/28 03:29:05;;;;;;;4.33;2.80;;;-40.00;99.90;;;;;;5075627;28;20179;-71
2022/09/28 03:31:30;;;;;;;3.43;2.80;;;-40.00;99.90;;;;;;5085229;28;20608;-69
2022/09/28 03:33:56;;;;;;;4.50;2.90;;;-40.00;99.90;;;;;;5082756;28;20262;-72
2022/09/28 03:36:22;;;;;;;7.57;3.20;;;-40.00;99.90;;;;;;5080085;28;20188;-71
2022/09/28 03:38:52;;;;;;;2.47;2.27;;;-40.00;99.90;;;;;;5082146;28;20228;-70
2022/09/28 03:41:17;;;;;;;8.20;2.47;;;-40.00;99.90;;;;;;5080516;28;20509;-72
2022/09/28 03:43:43;;;;;;;3.00;2.80;;;-40.00;99.90;;;;;;5075443;28;20186;-71
2022/09/28 03:46:09;;;;;;;4.27;2.43;;;-40.00;99.90;;;;;;5078601;28;20192;-71
2022/09/28 03:48:36;;;;;;;5.27;2.73;;;-40.00;99.90;;;;;;5076185;28;20176;-74
2022/09/28 03:51:08;;;;;;;7.87;2.57;;;-40.00;99.90;;;;;;5084888;28;20178;-69
2022/09/28 03:53:35;;;;;;;2.40;2.30;;;-40.00;99.90;;;;;;5081329;28;20213;-70
2022/09/28 03:56:12;;;;;;;4.73;2.93;;;-40.00;99.90;;;;;;5084243;28;20186;-75
2022/09/28 03:58:38;;;;;;;4.30;2.27;;;-40.00;99.90;;;;;;5079941;28;20263;-71
2022/09/28 04:01:08;;;;;;;3.07;2.53;;;-40.00;99.90;;;;;;5074620;28;20588;-72
2022/09/28 04:03:35;;;;;;;2.60;1.83;;;-40.00;99.90;;;;;;5074873;28;20514;-74
2022/09/28 04:06:01;;;;;;;2.20;1.67;;;-40.00;99.90;;;;;;5079846;28;20186;-73
2022/09/28 04:08:27;;;;;;;5.67;1.93;;;-40.00;99.90;;;;;;5077671;28;20228;-70
2022/09/28 04:10:59;;;;;;;2.87;1.63;;;-40.00;99.90;;;;;;5078364;28;20540;-68
2022/09/28 04:13:28;;;;;;;3.30;1.73;;;-40.00;99.90;;;;;;5074899;28;20591;-69
2022/09/28 04:15:56;;;;;;;2.57;1.97;;;-40.00;99.90;;;;;;5075416;28;20179;-69
2022/09/28 04:18:23;;;;;;;9.03;1.60;;;-40.00;99.90;;;;;;5082362;28;20194;-72
2022/09/28 04:21:02;;;;;;;1.03;1.03;;;-40.00;99.90;;;;;;5075527;28;20633;-73
2022/09/28 04:23:28;;;;;;;1.83;1.50;;;-40.00;99.90;;;;;;5085268;28;20566;-69
2022/09/28 04:25:54;;;;;;;4.00;1.93;;;-40.00;99.90;;;;;;5077223;28;20296;-70
2022/09/28 04:31:13;;;;;;;1.83;1.50;;;-40.00;99.90;;;;;;5080598;28;20533;-73
2022/09/28 04:33:39;;;;;;;3.03;1.57;;;-40.00;99.90;;;;;;5080058;28;20208;-74
2022/09/28 04:36:05;;;;;;;2.03;1.40;;;-40.00;99.90;;;;;;5074890;28;20563;-70
2022/09/28 04:38:32;;;;;;;2.47;1.70;;;-40.00;99.90;;;;;;5081463;28;20583;-71
2022/09/28 04:40:58;;;;;;;6.83;2.03;;;-40.00;99.90;;;;;;5084473;28;20273;-72
2022/09/28 04:43:23;;;;;;;2.00;1.80;;;-40.00;99.90;;;;;;5080125;28;20266;-72
2022/09/28 04:45:49;;;;;;;2.60;2.13;;;-40.00;99.90;;;;;;5081554;28;20234;-69
2022/09/28 04:48:15;;;;;;;4.93;2.27;;;-40.00;99.90;;;;;;5078506;28;20180;-69
2022/09/28 04:50:40;;;;;;;3.80;2.00;;;-40.00;99.90;;;;;;5085610;28;20477;-71
2022/09/28 04:53:06;;;;;;;4.60;2.77;;;-40.00;99.90;;;;;;5078360;28;20502;-69
2022/09/28 04:55:32;;;;;;;3.03;1.90;;;-40.00;99.90;;;;;;5083836;28;20199;-71
2022/09/28 04:58:01;;;;;;;7.67;2.90;;;-40.00;99.90;;;;;;5084582;28;20536;-74
2022/09/28 05:00:34;;;;;;;8.63;2.87;;;-40.00;99.90;;;;;;5082534;28;20195;-76
2022/09/28 05:02:59;;;;;;;4.87;2.87;;;-40.00;99.90;;;;;;5085296;28;20215;-75
2022/09/28 05:05:25;;;;;;;11.33;2.70;;;-40.00;99.90;;;;;;5078387;28;20644;-76
2022/09/28 05:07:51;;;;;;;6.37;3.03;;;-40.00;99.90;;;;;;5078011;28;20735;-74
2022/09/28 05:10:18;;;;;;;5.30;3.00;;;-40.00;99.90;;;;;;5078437;28;20191;-69
2022/09/28 05:12:44;;;;;;;7.87;3.80;;;-40.00;99.90;;;;;;5078142;28;20203;-70
2022/09/28 05:15:10;;;;;;;4.07;3.77;;;-40.00;99.90;;;;;;5077922;28;20195;-70
2022/09/28 05:17:36;;;;;;;3.80;3.50;;;-40.00;99.90;;;;;;5077904;28;20175;-70
2022/09/28 05:20:02;;;;;;;6.53;3.40;;;-40.00;99.90;;;;;;5084035;28;20194;-71
2022/09/28 05:22:28;;;;;;;5.70;3.53;;;-40.00;99.90;;;;;;5086385;28;20207;-73
2022/09/28 05:24:54;;;;;;;7.73;4.40;;;-40.00;99.90;;;;;;5084283;28;20206;-70
2022/09/28 05:27:20;;;;;;;4.23;3.53;;;-40.00;99.90;;;;;;5084592;28;20254;-71
2022/09/28 05:29:46;;;;;;;6.00;4.43;;;-40.00;99.90;;;;;;5080755;28;20186;-74
2022/09/28 05:32:11;;;;;;;5.57;4.20;;;-40.00;99.90;;;;;;5077686;28;20199;-69
2022/09/28 05:34:37;;;;;;;4.37;4.00;;;-40.00;99.90;;;;;;5083757;28;20182;-72
2022/09/28 05:37:03;;;;;;;5.73;4.10;;;-40.00;99.90;;;;;;5078210;28;20266;-73
2022/09/28 05:39:29;;;;;;;6.77;3.63;;;-40.00;99.90;;;;;;5084799;28;20202;-73
2022/09/28 05:41:56;;;;;;;6.80;5.17;;;-40.00;99.90;;;;;;5083402;28;20202;-70
2022/09/28 05:44:23;;;;;;;6.43;5.13;;;-40.00;99.90;;;;;;5085684;28;20191;-69
2022/09/28 05:46:49;;;;;;;7.00;6.03;;;-40.00;99.90;;;;;;5082958;28;20203;-69
2022/09/28 05:49:16;;;;;;;5.00;4.67;;;-40.00;99.90;;;;;;5086464;28;20175;-75
2022/09/28 05:51:41;;;;;;;7.93;6.27;;;-40.00;99.90;;;;;;5083627;28;20175;-71
2022/09/28 05:54:07;;;;;;;10.87;6.77;;;-40.00;99.90;;;;;;5077923;28;20269;-72
2022/09/28 05:56:33;;;;;;;8.10;6.73;;;-40.00;99.90;;;;;;5086367;28;20179;-67
2022/09/28 05:58:59;;;;;;;10.77;6.83;;;-40.00;99.90;;;;;;5076015;28;20195;-70
2022/09/28 06:01:25;;;;;;;9.73;7.67;;;-40.00;99.90;;;;;;5081723;28;20296;-70
2022/09/28 06:03:50;;;;;;;7.53;6.80;;;-40.00;99.90;;;;;;5077423;28;20218;-68
2022/09/28 06:06:16;;;;;;;8.27;7.40;;;-40.00;99.90;;;;;;5082690;28;20187;-67
2022/09/28 06:08:42;;;;;;;11.03;10.10;;;-40.00;99.90;;;;;;5077149;28;20228;-70
2022/09/28 06:11:11;;;;;;;18.83;10.93;;;-40.00;99.90;;;;;;5082411;28;20186;-67
2022/09/28 06:13:38;;;;;;;11.80;9.67;;;-40.00;99.90;;;;;;5083326;28;20219;-69
2022/09/28 06:16:06;;;;;;;15.37;11.57;;;-40.00;99.90;;;;;;5076970;28;20210;-68
2022/09/28 06:18:32;;;;;;;13.77;11.70;;;-40.00;99.90;;;;;;5077291;28;20187;-73
2022/09/28 06:20:58;;;;;;;14.07;11.77;;;-40.00;99.90;;;;;;5081087;28;20190;-75
2022/09/28 06:23:24;;;;;;;13.70;11.50;;;-40.00;99.90;;;;;;5083328;28;20579;-72
2022/09/28 06:25:49;;;;;;;12.67;11.03;;;-40.00;99.90;;;;;;5080142;28;20711;-73
2022/09/28 06:28:15;;;;;;;26.47;12.70;;;-40.00;99.90;;;;;;5082782;28;20181;-69
2022/09/28 06:30:42;;;;;;;12.50;10.63;;;-40.00;99.90;;;;;;5084238;28;20180;-72
2022/09/28 06:33:13;;;;;;;14.70;11.13;;;-40.00;99.90;;;;;;5081655;28;20191;-71
2022/09/28 06:35:39;;;;;;;13.73;10.70;;;-40.00;99.90;;;;;;5079960;28;20270;-69
2022/09/28 06:38:05;;;;;;;15.90;10.87;;;-40.00;99.90;;;;;;5083093;28;20262;-76
2022/09/28 06:40:32;;;;;;;13.83;10.47;;;-40.00;99.90;;;;;;5075483;28;20191;-70
2022/09/28 06:43:09;;;;;;;15.63;11.30;;;-40.00;99.90;;;;;;5076877;28;20206;-70
2022/09/28 06:45:36;;;;;;;15.33;11.37;;;-40.00;99.90;;;;;;5076965;28;20183;-72
2022/09/28 06:48:02;;;;;;;12.13;10.50;;;-40.00;99.90;;;;;;5081074;28;20203;-70
2022/09/28 06:50:34;;;;;;;16.33;11.23;;;-40.00;99.90;;;;;;5083169;28;20576;-69
2022/09/28 06:53:01;;;;;;;10.80;9.70;;;-40.00;99.90;;;;;;5080709;28;20172;-70
2022/09/28 06:55:27;;;;;;;11.83;10.17;;;-40.00;99.90;;;;;;5076266;28;20730;-71
2022/09/28 06:57:57;;;;;;;13.90;10.20;;;-40.00;99.90;;;;;;5076325;28;20176;-75
2022/09/28 07:00:23;;;;;;;11.03;9.37;;;-40.00;99.90;;;;;;5076024;28;20203;-69
2022/09/28 07:02:49;;;;;;;13.20;10.77;;;-40.00;99.90;;;;;;5075772;28;20266;-67
2022/09/28 07:05:15;;;;;;;10.77;9.67;;;-40.00;99.90;;;;;;5076313;28;20590;-73
2022/09/28 07:07:43;;;;;;;15.33;10.87;;;-40.00;99.90;;;;;;5078966;28;20174;-66
2022/09/28 07:10:12;;;;;;;13.17;9.17;;;-40.00;99.90;;;;;;5085903;28;20470;-71
2022/09/28 07:12:38;;;;;;;14.37;9.60;;;-40.00;99.90;;;;;;5085597;28;20578;-70
2022/09/28 07:15:06;;;;;;;14.80;9.43;;;-40.00;99.90;;;;;;5079929;28;20567;-66
2022/09/28 07:17:33;;;;;;;18.67;10.70;;;-40.00;99.90;;;;;;5079520;28;20184;-70
2022/09/28 07:19:59;;;;;;;10.53;9.37;;;-40.00;99.90;;;;;;5075935;28;20517;-68
2022/09/28 07:22:25;;;;;;;16.77;9.43;;;-40.00;99.90;;;;;;5075770;28;20203;-71
2022/09/28 07:24:51;;;;;;;20.40;11.23;;;-40.00;99.90;;;;;;5081408;28;20183;-69
2022/09/28 07:27:16;;;;;;;33.53;10.20;;;-40.00;99.90;;;;;;5079248;28;20171;-69
2022/09/28 07:29:42;;;;;;;19.67;9.70;;;-40.00;99.90;;;;;;5081517;28;20188;-68
2022/09/28 07:32:08;;;;;;;13.57;7.83;;;-40.00;99.90;;;;;;5086783;28;20190;-71
2022/09/28 07:34:42;;;;;;;20.37;9.60;;;-40.00;99.90;;;;;;5079552;28;20192;-69
2022/09/28 07:37:10;;;;;;;13.77;9.27;;;-40.00;99.90;;;;;;5075371;28;20179;-70
2022/09/28 07:41:10;;;;;;;15.77;10.23;;;-40.00;99.90;;;;;;5082660;28;20178;-69
2022/09/28 07:42:23;;;;;;;15.60;8.93;;;-40.00;99.90;;;;;;5075716;28;20218;-72
2022/09/28 07:44:50;;;;;;;8.97;7.83;;;-40.00;99.90;;;;;;5086619;28;20183;-69
2022/09/28 07:47:17;;;;;;;18.53;9.07;;;-40.00;99.90;;;;;;5076612;28;20584;-70
2022/09/28 07:49:43;;;;;;;10.00;8.33;;;-40.00;99.90;;;;;;5078200;28;20203;-67
2022/09/28 07:52:11;;;;;;;13.10;8.00;;;-40.00;99.90;;;;;;5075256;28;20223;-69
2022/09/28 07:54:38;;;;;;;19.70;9.57;;;-40.00;99.90;;;;;;5074506;28;20184;-70
2022/09/28 07:57:05;;;;;;;20.17;8.90;;;-40.00;99.90;;;;;;5079511;28;20567;-69
2022/09/28 07:59:31;;;;;;;11.03;9.50;;;-40.00;99.90;;;;;;5076837;28;20214;-72
2022/09/28 08:01:58;;;;;;;13.80;8.50;;;-40.00;99.90;;;;;;5080725;28;20238;-74
2022/09/28 08:04:24;;;;;;;15.30;8.57;;;-40.00;99.90;;;;;;5077312;28;20223;-72
2022/09/28 08:06:50;;;;;;;12.33;8.17;;;-40.00;99.90;;;;;;5075450;28;20172;-69
2022/09/28 08:09:15;;;;;;;16.00;9.23;;;-40.00;99.90;;;;;;5078606;28;20517;-68
2022/09/28 08:11:42;;;;;;;14.43;9.27;;;-40.00;99.90;;;;;;5080934;28;20531;-67
2022/09/28 08:14:09;;;;;;;12.37;8.50;;;-40.00;99.90;;;;;;5075139;28;20253;-70
2022/09/28 08:16:35;;;;;;;10.10;8.20;;;-40.00;99.90;;;;;;5078832;28;20223;-68
2022/09/28 08:19:01;;;;;;;19.77;9.83;;;-40.00;99.90;;;;;;5087147;28;20580;-66
2022/09/28 08:21:45;;;;;;;16.47;10.07;;;-40.00;99.90;;;;;;5083221;28;20298;-72
2022/09/28 08:24:12;;;;;;;14.70;10.23;;;-40.00;99.90;;;;;;5082914;28;20257;-73
2022/09/28 08:26:38;;;;;;;14.37;10.50;;;-40.00;99.90;;;;;;5078535;28;20173;-66
2022/09/28 08:29:05;;;;;;;13.53;10.20;;;-40.00;99.90;;;;;;5084051;28;20308;-71
2022/09/28 08:31:31;;;;;;;11.40;9.90;;;-40.00;99.90;;;;;;5083291;28;20213;-67
2022/09/28 08:33:57;;;;;;;14.80;9.97;;;-40.00;99.90;;;;;;5082244;28;20179;-77
2022/09/28 08:36:23;;;;;;;16.70;10.37;;;-40.00;99.90;;;;;;5080540;28;20464;-68
2022/09/28 08:38:49;;;;;;;12.13;9.73;;;-40.00;99.90;;;;;;5083804;28;20195;-68
2022/09/28 08:41:26;;;;;;;13.73;9.73;;;-40.00;99.90;;;;;;5081585;28;20208;-68
2022/09/28 08:44:12;;;;;;;17.50;8.73;;;-40.00;99.90;;;;;;5078513;28;20316;-70
2022/09/28 08:46:46;;;;;;;12.97;9.10;;;-40.00;99.90;;;;;;5079273;28;20207;-70
2022/09/28 08:49:33;;;;;;;20.93;10.43;;;-40.00;99.90;;;;;;5078678;28;20189;-69
2022/09/28 08:52:04;;;;;;;17.40;7.63;;;-40.00;99.90;;;;;;5078695;28;20187;-77
2022/09/28 08:54:36;;;;;;;12.53;7.83;;;-40.00;99.90;;;;;;5078538;28;20269;-70
2022/09/28 08:57:14;;;;;;;13.67;8.67;;;-40.00;99.90;;;;;;5086941;28;20603;-67
2022/09/28 08:59:49;;;;;;;10.33;7.17;;;-40.00;99.90;;;;;;5081234;28;20189;-74
2022/09/28 09:02:38;;;;;;;14.13;7.93;;;-40.00;99.90;;;;;;5084279;28;20210;-74
2022/09/28 09:05:06;;;;;;;32.57;7.90;;;-40.00;99.90;;;;;;5082616;28;20201;-70
2022/09/28 09:07:52;;;;;;;11.60;8.00;;;-40.00;99.90;;;;;;5084776;28;20178;-76
2022/09/28 09:11:17;;;;;;;14.03;8.57;;;-40.00;99.90;;;;;;5078373;28;20174;-77
2022/09/28 09:13:48;;;;;;;8.57;6.67;;;-40.00;99.90;;;;;;5014324;28;20216;-68
2022/09/28 09:16:14;;;;;;;12.90;7.93;;;-40.00;99.90;;;;;;5099297;28;20193;-70
2022/09/28 09:18:52;;;;;;;15.40;6.87;;;-40.00;99.90;;;;;;5082195;28;20482;-70
2022/09/28 09:21:40;;;;;;;21.70;7.03;;;-40.00;99.90;;;;;;5086173;28;20207;-68
2022/09/28 09:24:32;;;;;;;13.90;6.43;;;-40.00;99.90;;;;;;5077994;28;20169;-69
2022/09/28 09:27:13;;;;;;;7.87;6.80;;;-40.00;99.90;;;;;;5077984;28;20186;-70
2022/09/28 09:30:13;;;;;;;8.93;7.03;;;-40.00;99.90;;;;;;5076453;28;20205;-69
2022/09/28 09:32:48;;;;;;;6.60;5.80;;;-40.00;99.90;;;;;;5084843;28;20344;-71
2022/09/28 09:35:51;;;;;;;11.27;5.00;;;-40.00;99.90;;;;;;5082649;28;20182;-69
2022/09/28 09:38:38;;;;;;;5.93;4.70;;;-40.00;99.90;;;;;;5077947;28;20210;-69
2022/09/28 09:41:20;;;;;;;7.80;5.40;;;-40.00;99.90;;;;;;5077599;28;20213;-70
2022/09/28 09:44:14;;;;;;;9.47;4.10;;;-40.00;99.90;;;;;;5077037;28;20179;-69
2022/09/28 09:47:08;;;;;;;11.30;5.27;;;-40.00;99.90;;;;;;5070524;28;20484;-72
2022/09/28 09:50:00;;;;;;;5.40;3.87;;;-40.00;99.90;;;;;;5082735;28;20187;-68
2022/09/28 09:52:54;;;;;;;8.00;3.20;;;-40.00;99.90;;;;;;5077687;28;20244;-72
2022/09/28 09:55:26;;;;;;;8.87;3.47;;;-40.00;99.90;;;;;;5083785;28;20183;-68
2022/09/28 09:57:59;;;;;;;10.37;2.90;;;-40.00;99.90;;;;;;5083491;28;20482;-67
2022/09/28 10:00:25;;;;;;;6.03;2.83;;;-40.00;99.90;;;;;;5082481;28;20244;-67
2022/09/28 10:02:53;;;;;;;5.13;3.17;;;-40.00;99.90;;;;;;5077482;28;20289;-71
2022/09/28 10:05:24;;;;;;;6.57;2.80;;;-40.00;99.90;;;;;;5082366;28;20202;-68
2022/09/28 10:08:08;;;;;;;16.20;3.93;;;-40.00;99.90;;;;;;5089806;28;20488;-67
2022/09/28 10:10:47;;;;;;;6.63;2.90;;;-40.00;99.90;;;;;;5081633;28;20699;-68
2022/09/28 10:13:13;;;;;;;6.57;2.70;;;-40.00;99.90;;;;;;5082515;28;20259;-69
2022/09/28 10:15:41;;;;;;;4.30;3.40;;;-40.00;99.90;;;;;;5076203;28;20191;-69
2022/09/28 10:18:12;;;;;;;3.90;2.63;;;-40.00;99.90;;;;;;5081142;28;20183;-69
2022/09/28 10:20:41;;;;;;;8.67;2.80;;;-40.00;99.90;;;;;;5079721;28;20241;-70
2022/09/28 10:23:19;;;;;;;3.37;2.03;;;-40.00;99.90;;;;;;5080376;28;20264;-69
2022/09/28 10:25:46;;;;;;;2.40;1.60;;;-40.00;99.90;;;;;;5089919;28;20184;-68
2022/09/28 10:28:21;;;;;;;7.63;1.83;;;-40.00;99.90;;;;;;5079704;28;20179;-74
2022/09/28 10:30:47;;;;;;;6.47;2.30;;;-40.00;99.90;;;;;;5082872;28;20187;-69
2022/09/28 10:33:33;;;;;;;5.07;1.60;;;-40.00;99.90;;;;;;5076642;28;20191;-72
2022/09/28 10:36:03;;;;;;;6.03;1.90;;;-40.00;99.90;;;;;;5076576;28;20276;-73
2022/09/28 10:38:30;;;;;;;8.20;2.23;;;-40.00;99.90;;;;;;5076659;28;20587;-68
2022/09/28 10:41:08;;;;;;;6.43;1.87;;;-40.00;99.90;;;;;;5076201;28;20197;-73
2022/09/28 10:43:44;;;;;;;5.27;1.73;;;-40.00;99.90;;;;;;5076612;28;20496;-72
2022/09/28 10:46:19;;;;;;;5.53;1.53;;;-40.00;99.90;;;;;;5075199;28;20513;-69
2022/09/28 10:48:57;;;;;;;5.20;1.70;;;-40.00;99.90;;;;;;5086463;28;20186;-71
2022/09/28 10:51:42;;;;;;;8.20;1.90;;;-40.00;99.90;;;;;;5082105;28;20191;-69
2022/09/28 10:54:19;;;;;;;14.17;2.57;;;-40.00;99.90;;;;;;5083835;28;20579;-69
2022/09/28 10:56:46;;;;;;;4.03;1.30;;;-40.00;99.90;;;;;;5081851;28;20307;-71
2022/09/28 10:59:27;;;;;;;2.77;1.47;;;-40.00;99.90;;;;;;5076137;28;20253;-72
2022/09/28 11:02:33;;;;;;;5.07;1.60;;;-40.00;99.90;;;;;;5075330;28;20529;-74
2022/09/28 11:05:02;;;;;;;4.67;1.50;;;-40.00;99.90;;;;;;5055419;28;20193;-69
2022/09/28 11:07:30;;;;;;;5.03;1.40;;;-40.00;99.90;;;;;;5054555;28;20251;-68
2022/09/28 11:09:57;;;;;;;3.83;0.77;;;-40.00;99.90;;;;;;5070080;28;20743;-72
2022/09/28 11:12:26;;;;;;;7.63;1.60;;;-40.00;99.90;;;;;;5082592;28;20190;-72
2022/09/28 11:15:02;;;;;;;12.03;1.70;;;-40.00;99.90;;;;;;5076162;28;20546;-74
2022/09/28 11:17:32;;;;;;;5.87;1.20;;;-40.00;99.90;;;;;;5076149;28;20197;-73
2022/09/28 11:20:00;;;;;;;2.57;1.17;;;-40.00;99.90;;;;;;5083128;28;20533;-69
2022/09/28 11:22:32;;;;;;;3.43;1.77;;;-40.00;99.90;;;;;;5075928;28;20610;-73
2022/09/28 11:25:15;;;;;;;3.47;1.13;;;-40.00;99.90;;;;;;5078552;28;20177;-74
2022/09/28 11:27:42;;;;;;;3.00;1.20;;;-40.00;99.90;;;;;;5078916;28;20186;-70
2022/09/28 11:30:23;;;;;;;5.73;1.63;;;-40.00;99.90;;;;;;5075443;28;20575;-75
2022/09/28 11:32:51;;;;;;;1.80;0.93;;;-40.00;99.90;;;;;;5074868;28;20191;-68
2022/09/28 11:35:26;;;;;;;3.10;0.93;;;-40.00;99.50;;;;;;5080720;28;20206;-68
2022/09/28 11:38:08;;;;;;;5.00;0.80;;;-40.00;98.70;;;;;;5075461;28;20203;-73
2022/09/28 11:40:57;;;;;;;4.93;1.97;;;-40.00;96.90;;;;;;5080463;28;20499;-68
2022/09/28 11:43:37;;;;;;;3.53;1.70;;;-40.00;97.50;;;;;;5071079;28;20267;-71
2022/09/28 11:46:29;;;;;;;1.73;0.80;;;-40.00;95.50;;;;;;5075622;28;20189;-71
2022/09/28 11:49:16;;;;;;;4.00;1.67;;;-40.00;94.70;;;;;;5057078;28;20544;-68
2022/09/28 11:51:44;;;;;;;2.20;1.10;;;-40.00;96.90;;;;;;5080693;28;20486;-79
2022/09/28 11:54:13;;;;;;;1.90;0.77;;;-40.00;94.20;;;;;;5074672;28;20247;-73
2022/09/28 11:56:46;;;;;;;2.07;0.87;;;-40.00;92.20;;;;;;5079623;28;20266;-69
2022/09/28 11:59:16;;;;;;;1.20;1.07;;;-40.00;90.60;;;;;;5083770;28;20178;-69
2022/09/28 12:01:50;;;;;;;1.50;0.90;;;-40.00;90.30;;;;;;5082675;28;20268;-70
2022/09/28 12:04:37;;;;;;;3.33;1.13;;;-40.00;89.60;;;;;;5078952;28;20174;-71
2022/09/28 12:07:22;;;;;;;3.90;1.00;;;-40.00;91.10;;;;;;5074960;28;20191;-72
2022/09/28 12:09:56;;;;;;;3.43;1.23;;;-40.00;92.30;;;;;;5077057;28;20240;-70
2022/09/28 12:12:31;;;;;;;2.20;1.17;;;-40.00;91.70;;;;;;5077128;28;20179;-72
2022/09/28 12:15:04;;;;;;;4.27;1.80;;;-40.00;92.50;;;;;;5082541;28;20548;-70
2022/09/28 12:17:42;;;;;;;1.13;1.03;;;-40.00;92.30;;;;;;5079924;28;20183;-73
2022/09/28 12:20:33;;;;;;;1.97;0.90;;;-40.00;91.10;;;;;;5078232;28;20240;-70
2022/09/28 12:23:01;;;;;;;1.87;1.10;;;-40.00;89.80;;;;;;5080408;28;20218;-71
2022/09/28 12:25:38;;;;;;;8.23;1.23;;;-40.00;86.10;;;;;;5079901;28;20179;-68
2022/09/28 12:28:27;;;;;;;4.57;0.93;;;-40.00;81.50;;;;;;5075008;28;20178;-70
2022/09/28 12:30:55;;;;;;;2.30;0.90;;;-40.00;79.80;;;;;;5074896;28;20183;-75
2022/09/28 12:33:21;;;;;;;1.90;0.80;;;-40.00;85.10;;;;;;5075109;28;20178;-71
2022/09/28 12:35:55;;;;;;;5.70;1.67;;;-40.00;88.40;;;;;;5074705;28;20183;-72
2022/09/28 12:38:50;;;;;;;2.07;1.07;;;-40.00;86.60;;;;;;5075180;28;20189;-68
2022/09/28 12:41:39;;;;;;;2.53;1.40;;;-40.00;83.90;;;;;;5083317;28;20244;-69
2022/09/28 12:44:31;;;;;;;4.87;1.10;;;-40.00;93.90;;;;;;5075451;28;20237;-80
2022/09/28 12:47:16;;;;;;;2.50;0.67;;;-40.00;96.90;;;;;;5074105;28;20192;-69
2022/09/28 12:50:23;;;;;;;1.10;0.83;;;-40.00;99.50;;;;;;5077615;28;20179;-74
2022/09/28 12:53:12;;;;;;;2.10;0.70;;;-40.00;99.80;;;;;;5073079;28;20202;-69
2022/09/28 12:55:55;;;;;;;1.10;1.00;;;-40.00;99.80;;;;;;5078679;28;20265;-70
2022/09/28 12:58:32;;;;;;;1.97;1.10;;;-40.00;99.90;;;;;;5075013;28;20179;-69
2022/09/28 13:01:25;;;;;;;2.07;1.03;;;-35.30;99.90;;;;;;5078818;28;20195;-68